Sierra, Nevada
Current Conditions -  °F | °C
As of 3:55 PM on Friday 19 Dec 2014 (Local Time) from KRTS Reporting Station
Overcast Overcast  
Wind Chill: 37°   Ceiling: 6000
Heat Index: 43°   Visibility: 10mi
Dew Point: 32°   Wind: 9mph
Humidity: 66%   Direction: 260°W
Pressure: 30.1"   Gusts: NA
Location:  39.7378°N, 119.889°W
Report Text: KRTS 192355Z AUTO 26008KT 10SM FEW043 BKN060 OVC070 06/00 A3010 RMK AO2
Loading
Personal Weather Stations






























Interactive Weather Map New forecast layout! Learn more

10-Day Weather Forecast

Advertisements
Track Severe Weather on mobile